createdAt,value
2023-02-02T00:01:21.473Z,97746.00
2023-02-02T00:06:43.003Z,97759.00
2023-02-02T00:12:04.854Z,97771.00
2023-02-02T00:17:26.468Z,97768.00
2023-02-02T00:22:47.996Z,97758.00
2023-02-02T00:28:09.807Z,97756.00
2023-02-02T00:33:31.595Z,97767.00
2023-02-02T00:38:53.591Z,97765.00
2023-02-02T00:44:33.832Z,97777.00
2023-02-02T00:49:55.550Z,97781.00
2023-02-02T00:55:17.871Z,97782.00
2023-02-02T01:00:40.940Z,97789.00
2023-02-02T01:06:02.948Z,97812.00
2023-02-02T01:11:25.984Z,97800.00
2023-02-02T01:16:48.151Z,97796.00
2023-02-02T01:22:10.194Z,97802.00
2023-02-02T01:27:32.036Z,97790.00
2023-02-02T01:32:53.759Z,97791.00
2023-02-02T01:38:16.006Z,97794.00
2023-02-02T01:43:43.394Z,97796.00
2023-02-02T01:49:19.413Z,97792.00
2023-02-02T01:54:45.932Z,97801.00
2023-02-02T02:00:11.779Z,97803.00
2023-02-02T02:05:41.680Z,97797.00
2023-02-02T02:11:03.351Z,97809.00
2023-02-02T02:17:04.137Z,97813.00
2023-02-02T02:22:51.355Z,97804.00
2023-02-02T02:28:37.303Z,97799.00
2023-02-02T02:34:22.358Z,97799.00
2023-02-02T02:39:55.973Z,97811.00
2023-02-02T02:45:18.692Z,97816.00
2023-02-02T02:50:40.215Z,97811.00
2023-02-02T02:56:14.967Z,97815.00
2023-02-02T03:02:02.606Z,97830.00
2023-02-02T03:07:41.724Z,97835.00
2023-02-02T03:13:11.538Z,97829.00
2023-02-02T03:18:33.961Z,97846.00
2023-02-02T03:23:55.400Z,97842.00
2023-02-02T03:29:18.207Z,97831.00
2023-02-02T03:34:39.767Z,97844.00
2023-02-02T03:40:01.905Z,97843.00
2023-02-02T03:45:23.908Z,97840.00
2023-02-02T03:50:45.531Z,97853.00
2023-02-02T03:56:07.475Z,97869.00
2023-02-02T04:01:30.587Z,97851.00
2023-02-02T04:06:52.041Z,97858.00
2023-02-02T04:12:13.582Z,97862.00
2023-02-02T04:17:35.586Z,97861.00
2023-02-02T04:22:56.857Z,97864.00
2023-02-02T04:28:18.646Z,97872.00
2023-02-02T04:33:40.236Z,97875.00
2023-02-02T04:39:01.837Z,97874.00
2023-02-02T04:44:23.515Z,97868.00
2023-02-02T04:49:45.063Z,97883.00
2023-02-02T04:55:06.931Z,97872.00
2023-02-02T05:00:30.186Z,97877.00
2023-02-02T05:05:51.794Z,97881.00
2023-02-02T05:11:16.232Z,97898.00
2023-02-02T05:16:39.798Z,97905.00
2023-02-02T05:22:01.415Z,97916.00
2023-02-02T05:27:23.156Z,97907.00
2023-02-02T05:32:44.347Z,97917.00
2023-02-02T05:38:06.061Z,97922.00
2023-02-02T05:43:28.941Z,97924.00
2023-02-02T05:48:50.297Z,97933.00
2023-02-02T05:54:12.432Z,97950.00
2023-02-02T05:59:33.950Z,97945.00
2023-02-02T06:04:55.626Z,97947.00
2023-02-02T06:10:17.370Z,97960.00
2023-02-02T06:15:38.790Z,97950.00
2023-02-02T06:21:01.445Z,97943.00
2023-02-02T06:26:23.250Z,97949.00
2023-02-02T06:31:44.654Z,97954.00
2023-02-02T06:37:06.146Z,97960.00
2023-02-02T06:42:27.848Z,97969.00
2023-02-02T06:47:49.410Z,97982.00
2023-02-02T06:53:10.913Z,97974.00
2023-02-02T06:58:33.632Z,97992.00
2023-02-02T07:03:55.134Z,97997.00
2023-02-02T07:09:16.831Z,98001.00
2023-02-02T07:14:38.377Z,98007.00
2023-02-02T07:19:59.822Z,98026.00
2023-02-02T07:25:21.666Z,98016.00
2023-02-02T07:30:43.002Z,98024.00
2023-02-02T07:36:04.571Z,98042.00
2023-02-02T07:41:26.043Z,98047.00
2023-02-02T07:46:48.413Z,98039.00
2023-02-02T07:52:10.043Z,98043.00
2023-02-02T07:57:31.677Z,98044.00
2023-02-02T08:02:53.724Z,98051.00
2023-02-02T08:08:15.447Z,98049.00
2023-02-02T08:13:37.419Z,98050.00
2023-02-02T08:18:59.864Z,98064.00
2023-02-02T08:24:21.398Z,98068.00
2023-02-02T08:29:43.321Z,98074.00
2023-02-02T08:35:05.105Z,98082.00
2023-02-02T08:40:26.748Z,98078.00
2023-02-02T08:46:01.721Z,98092.00
2023-02-02T08:51:26.141Z,98099.00
2023-02-02T08:56:48.087Z,98113.00
2023-02-02T09:02:14.015Z,98111.00
2023-02-02T09:07:35.650Z,98107.00
2023-02-02T09:12:57.304Z,98113.00
2023-02-02T09:18:18.992Z,98121.00
2023-02-02T09:23:42.395Z,98127.00
2023-02-02T09:29:05.832Z,98130.00
2023-02-02T09:34:27.213Z,98121.00
2023-02-02T09:39:48.982Z,98131.00
2023-02-02T09:45:40.090Z,98140.00
2023-02-02T09:51:07.311Z,98144.00
2023-02-02T09:56:36.688Z,98143.00
2023-02-02T10:02:03.492Z,98147.00
2023-02-02T10:07:38.087Z,98147.00
2023-02-02T10:13:29.339Z,98151.00
2023-02-02T10:19:02.171Z,98149.00
2023-02-02T10:24:28.069Z,98166.00
2023-02-02T10:29:59.623Z,98159.00
2023-02-02T10:35:45.419Z,98159.00
2023-02-02T10:41:53.341Z,98163.00
2023-02-02T10:47:23.463Z,98173.00
2023-02-02T10:52:54.581Z,98169.00
2023-02-02T10:58:27.923Z,98174.00
2023-02-02T11:04:10.098Z,98174.00
2023-02-02T11:09:40.449Z,98178.00
2023-02-02T11:15:29.624Z,98198.00
2023-02-02T11:20:50.936Z,98195.00
2023-02-02T11:26:12.511Z,98201.00
2023-02-02T11:31:36.942Z,98196.00
2023-02-02T11:37:01.248Z,98204.00
2023-02-02T11:42:25.157Z,98209.00
2023-02-02T11:47:47.380Z,98220.00
2023-02-02T11:53:40.535Z,98214.00
2023-02-02T11:59:04.299Z,98213.00
2023-02-02T12:04:26.413Z,98242.00
2023-02-02T12:09:48.257Z,98217.00
2023-02-02T12:15:33.263Z,98218.00
2023-02-02T12:21:07.675Z,98233.00
2023-02-02T12:26:35.584Z,98236.00
2023-02-02T12:32:21.949Z,98233.00
2023-02-02T12:37:55.748Z,98246.00
2023-02-02T12:43:34.257Z,98241.00
2023-02-02T12:49:10.452Z,98238.00
2023-02-02T12:55:05.163Z,98254.00
2023-02-02T13:00:45.197Z,98255.00
2023-02-02T13:06:32.778Z,98247.00
2023-02-02T13:12:05.499Z,98254.00
2023-02-02T13:17:42.888Z,98260.00
2023-02-02T13:23:34.361Z,98292.00
2023-02-02T13:29:01.698Z,98303.00
2023-02-02T13:34:48.386Z,98306.00
2023-02-02T13:40:27.566Z,98309.00
2023-02-02T13:46:14.013Z,98313.00
2023-02-02T13:51:54.020Z,98335.00
2023-02-02T13:57:46.451Z,98346.00
2023-02-02T14:03:53.412Z,98353.00
2023-02-02T14:09:18.851Z,98368.00
2023-02-02T14:14:46.082Z,98357.00
2023-02-02T14:20:44.479Z,98366.00
2023-02-02T14:26:10.576Z,98370.00
2023-02-02T14:31:54.575Z,98374.00
2023-02-02T14:37:25.406Z,98398.00
2023-02-02T14:43:14.373Z,98404.00
2023-02-02T14:48:38.636Z,98411.00
2023-02-02T14:54:08.725Z,98423.00
2023-02-02T14:59:38.710Z,98427.00
2023-02-02T15:05:39.036Z,98435.00
2023-02-02T15:11:00.544Z,98446.00
2023-02-02T15:16:30.458Z,98466.00
2023-02-02T15:21:58.332Z,98464.00
2023-02-02T15:27:22.290Z,98468.00
2023-02-02T15:32:45.949Z,98489.00
2023-02-02T15:38:14.565Z,98484.00
2023-02-02T15:43:36.686Z,98493.00
2023-02-02T15:49:33.137Z,98508.00
2023-02-02T15:54:58.368Z,98525.00
2023-02-02T16:00:35.128Z,98542.00
2023-02-02T16:05:58.496Z,98547.00
2023-02-02T16:11:24.081Z,98553.00
2023-02-02T16:16:47.606Z,98568.00
2023-02-02T16:22:16.260Z,98581.00
2023-02-02T16:27:38.357Z,98591.00
2023-02-02T16:33:19.761Z,98601.00
2023-02-02T16:38:41.247Z,98607.00
2023-02-02T16:44:28.465Z,98612.00
2023-02-02T16:49:49.811Z,98622.00
2023-02-02T16:55:11.577Z,98640.00
2023-02-02T17:00:33.700Z,98642.00
2023-02-02T17:05:55.549Z,98649.00
2023-02-02T17:11:31.117Z,98671.00
2023-02-02T17:16:52.670Z,98691.00
2023-02-02T17:22:15.293Z,98689.00
2023-02-02T17:27:36.892Z,98698.00
2023-02-02T17:32:58.599Z,98710.00
2023-02-02T17:38:24.272Z,98720.00
2023-02-02T17:43:45.560Z,98719.00
2023-02-02T17:49:07.104Z,98726.00
2023-02-02T17:54:28.441Z,98736.00
2023-02-02T17:59:49.951Z,98731.00
2023-02-02T18:05:13.633Z,98725.00
2023-02-02T18:10:36.241Z,98721.00
2023-02-02T18:15:59.843Z,98723.00
2023-02-02T18:21:21.983Z,98719.00
2023-02-02T18:26:43.297Z,98731.00
2023-02-02T18:32:05.191Z,98730.00
2023-02-02T18:37:26.853Z,98738.00
2023-02-02T18:42:48.955Z,98738.00
2023-02-02T18:48:10.554Z,98743.00
2023-02-02T18:53:32.066Z,98743.00
2023-02-02T18:58:53.812Z,98740.00
2023-02-02T19:04:15.261Z,98744.00
2023-02-02T19:09:36.988Z,98749.00
2023-02-02T19:14:58.683Z,98737.00
2023-02-02T19:20:25.780Z,98739.00
2023-02-02T19:25:51.483Z,98744.00
2023-02-02T19:31:15.524Z,98747.00
2023-02-02T19:36:37.599Z,98745.00
2023-02-02T19:42:00.560Z,98752.00
2023-02-02T19:47:32.641Z,98746.00
2023-02-02T19:52:55.030Z,98747.00
2023-02-02T19:58:23.286Z,98739.00
2023-02-02T20:03:46.781Z,98730.00
2023-02-02T20:09:17.837Z,98732.00
2023-02-02T20:14:39.581Z,98725.00
2023-02-02T20:20:01.239Z,98731.00
2023-02-02T20:25:23.189Z,98741.00
2023-02-02T20:30:44.664Z,98739.00
2023-02-02T20:36:28.994Z,98743.00
2023-02-02T20:41:50.817Z,98758.00
2023-02-02T20:47:12.153Z,98756.00
2023-02-02T20:52:34.348Z,98753.00
2023-02-02T20:57:55.714Z,98755.00
2023-02-02T21:03:17.553Z,98757.00
2023-02-02T21:08:39.112Z,98754.00
2023-02-02T21:14:01.271Z,98759.00
2023-02-02T21:19:22.790Z,98755.00
2023-02-02T21:24:44.369Z,98749.00
2023-02-02T21:30:06.485Z,98741.00
2023-02-02T21:35:28.040Z,98739.00
2023-02-02T21:40:51.695Z,98742.00
2023-02-02T21:46:23.109Z,98722.00
2023-02-02T21:51:44.472Z,98746.00
2023-02-02T21:57:20.810Z,98743.00
2023-02-02T22:02:46.821Z,98734.00
2023-02-02T22:08:29.321Z,98736.00
2023-02-02T22:13:51.174Z,98744.00
2023-02-02T22:19:28.909Z,98730.00
2023-02-02T22:25:31.756Z,98735.00
2023-02-02T22:30:54.998Z,98730.00
2023-02-02T22:36:16.746Z,98720.00
2023-02-02T22:41:38.214Z,98721.00
2023-02-02T22:46:59.908Z,98718.00
2023-02-02T22:52:21.228Z,98707.00
2023-02-02T22:57:42.903Z,98702.00
2023-02-02T23:03:04.641Z,98691.00
2023-02-02T23:08:26.038Z,98695.00
2023-02-02T23:13:47.372Z,98707.00
2023-02-02T23:19:08.858Z,98691.00
2023-02-02T23:24:30.412Z,98707.00
2023-02-02T23:29:51.749Z,98694.00
2023-02-02T23:35:13.283Z,98701.00
2023-02-02T23:40:34.759Z,98690.00
2023-02-02T23:45:56.019Z,98688.00
2023-02-02T23:51:17.623Z,98692.00
2023-02-02T23:56:39.945Z,98674.00
